コロンボ の空港の天気 - METARとTAF

バンダラナイケ国際空港 ( VCBI / CMB ) - スリランカ コロンボ
飛行場実況気象(Metar)
観測時間01/23 08:40 IST (01/23 03:10 UTC)
風向・風速東北東 4m/s
視程7000m
天気現象
なし
気温24℃
湿度83%
気圧1012hPa
METARVCBI 230310Z 06008KT 7000 NSC 24/21 Q1012 NOSIG
過去の天気等 Google飛行場航空写真 Wunderground天気予報

過去48時間のMETAR

飛行場予報(TAF)
発表時間: 1/23 03:10 IST (1/22 21:40 UTC)
予報対象時間: 23日5時 IST ~ 24日11時 IST
風向・風速北北東 5m/s
視程10km以上
少しの雲 雲底高度 550m
23日5時 IST ~ 23日8時 IST に一時的に
視程6,000m
TAF VCBI 222140Z 2300/2406 03010KT 9999 FEW018 TX32/2308Z TN22/2300Z
TEMPO 2300/2303 6000